Terminal Aerodrome Forecast
Issued by NWS Burlington, VT

Home | Current Version | Previous Version | Text Only | Print | Product List | Glossary On
Versions: 1 2 3 4 5 6 7 8 9 10 11 12 13 14 15 16
000
FTUS41 KBTV 262327
TAFBTV
TAF
KBTV 262327Z 2700/2724 19010KT P6SM SCT060 BKN120
     FM270500 18008KT P6SM VCSH SCT035 OVC050
     FM270700 18010KT P6SM -SHRA SCT025 BKN030 OVC035
     FM271500 19008KT P6SM VCSH SCT025 BKN040
     FM271800 21007KT P6SM VCSH SCT050 BKN060=

USA.gov is the U.S. government's official web portal to all federal, state and local government web resources and services.